createdAt,value
2018-03-12T00:00:05.146Z,0
2018-03-12T00:05:03.024Z,0
2018-03-12T00:10:03.551Z,0
2018-03-12T00:15:03.037Z,0
2018-03-12T00:20:03.590Z,0
2018-03-12T00:25:03.052Z,0
2018-03-12T00:30:03.550Z,0
2018-03-12T00:35:02.970Z,0
2018-03-12T00:40:03.546Z,0
2018-03-12T00:45:03.224Z,0
2018-03-12T00:50:02.870Z,0
2018-03-12T00:55:03.335Z,0
2018-03-12T01:00:02.760Z,0
2018-03-12T01:05:03.042Z,0
2018-03-12T01:10:03.598Z,0
2018-03-12T01:15:03.314Z,0
2018-03-12T01:20:02.928Z,0
2018-03-12T01:25:03.440Z,0
2018-03-12T01:30:02.948Z,0
2018-03-12T01:35:03.555Z,0
2018-03-12T01:40:03.118Z,0
2018-03-12T01:45:03.563Z,0
2018-03-12T01:50:02.987Z,0
2018-03-12T01:55:03.511Z,0
2018-03-12T02:00:02.934Z,0
2018-03-12T02:05:03.421Z,0
2018-03-12T02:10:03.004Z,0
2018-03-12T02:15:03.517Z,0
2018-03-12T02:20:03.003Z,0
2018-03-12T02:25:03.493Z,0
2018-03-12T02:30:02.984Z,0
2018-03-12T02:35:03.542Z,0
2018-03-12T02:40:03.069Z,0
2018-03-12T02:45:03.581Z,0
2018-03-12T02:50:03.160Z,0
2018-03-12T02:55:02.632Z,0
2018-03-12T03:00:03.161Z,0
2018-03-12T03:05:02.717Z,0
2018-03-12T03:10:03.281Z,0
2018-03-12T03:15:02.747Z,0
2018-03-12T03:20:03.315Z,0
2018-03-12T03:25:02.804Z,0
2018-03-12T03:30:03.277Z,0
2018-03-12T03:35:02.791Z,0
2018-03-12T03:40:03.281Z,0
2018-03-12T03:45:02.784Z,0
2018-03-12T03:50:03.323Z,0
2018-03-12T03:55:02.791Z,0
2018-03-12T04:00:03.613Z,0
2018-03-12T04:05:03.112Z,0
2018-03-12T04:10:02.642Z,0
2018-03-12T04:15:03.452Z,0
2018-03-12T04:20:02.923Z,0
2018-03-12T04:25:03.386Z,0
2018-03-12T04:30:02.831Z,0
2018-03-12T04:35:03.352Z,0
2018-03-12T04:40:02.856Z,0
2018-03-12T04:45:03.326Z,3
2018-03-12T04:50:02.781Z,3
2018-03-12T04:55:03.339Z,3
2018-03-12T05:00:02.834Z,0
2018-03-12T05:05:03.343Z,0
2018-03-12T05:10:02.772Z,0
2018-03-12T05:15:03.216Z,0
2018-03-12T05:20:02.700Z,1
2018-03-12T05:25:03.210Z,2
2018-03-12T05:30:02.958Z,3
2018-03-12T05:35:03.418Z,2
2018-03-12T05:40:02.877Z,4
2018-03-12T05:45:03.376Z,3
2018-03-12T05:50:02.789Z,2
2018-03-12T05:55:03.268Z,1
2018-03-12T06:00:02.741Z,2
2018-03-12T06:05:03.214Z,0
2018-03-12T06:10:02.722Z,0
2018-03-12T06:15:03.207Z,0
2018-03-12T06:20:02.692Z,0
2018-03-12T06:25:03.131Z,0
2018-03-12T06:30:03.589Z,2
2018-03-12T06:35:03.127Z,3
2018-03-12T06:40:02.615Z,3
2018-03-12T06:45:03.074Z,3
2018-03-12T06:50:03.486Z,0
2018-03-12T06:55:02.944Z,0
2018-03-12T07:00:03.408Z,0
2018-03-12T07:05:02.841Z,0
2018-03-12T07:10:03.367Z,0
2018-03-12T07:15:02.832Z,0
2018-03-12T07:20:03.323Z,1
2018-03-12T07:25:02.848Z,0
2018-03-12T07:30:03.717Z,0
2018-03-12T07:35:03.182Z,0
2018-03-12T07:40:02.706Z,0
2018-03-12T07:45:03.261Z,0
2018-03-12T07:50:02.759Z,0
2018-03-12T07:55:03.206Z,0
2018-03-12T08:00:03.351Z,0
2018-03-12T08:05:02.860Z,0
2018-03-12T08:10:03.431Z,0
2018-03-12T08:15:02.921Z,0
2018-03-12T08:20:03.527Z,0
2018-03-12T08:25:03.012Z,0
2018-03-12T08:30:03.525Z,0
2018-03-12T08:35:03.107Z,0
2018-03-12T08:40:02.635Z,0
2018-03-12T08:45:03.119Z,0
2018-03-12T08:50:02.685Z,0
2018-03-12T08:55:03.114Z,0
2018-03-12T09:00:03.606Z,0
2018-03-12T09:05:03.048Z,0
2018-03-12T09:10:03.562Z,0
2018-03-12T09:15:03.086Z,0
2018-03-12T09:20:03.594Z,0
2018-03-12T09:25:03.067Z,0
2018-03-12T09:30:03.541Z,0
2018-03-12T09:35:03.005Z,2
2018-03-12T09:40:03.604Z,0
2018-03-12T09:45:03.136Z,0
2018-03-12T09:50:02.694Z,2
2018-03-12T09:55:03.176Z,1
2018-03-12T10:00:02.704Z,0
2018-03-12T10:05:03.264Z,0
2018-03-12T10:10:02.797Z,3
2018-03-12T10:15:03.248Z,4
2018-03-12T10:20:02.764Z,3
2018-03-12T10:25:03.248Z,2
2018-03-12T10:30:02.748Z,5
2018-03-12T10:35:03.275Z,5
2018-03-12T10:40:02.805Z,3
2018-03-12T10:45:03.345Z,3
2018-03-12T10:50:02.836Z,4
2018-03-12T10:55:03.324Z,4
2018-03-12T11:00:02.748Z,2
2018-03-12T11:05:03.224Z,3
2018-03-12T11:10:02.745Z,3
2018-03-12T11:15:03.199Z,3
2018-03-12T11:20:02.744Z,4
2018-03-12T11:25:03.250Z,4
2018-03-12T11:30:02.735Z,5
2018-03-12T11:35:03.501Z,3
2018-03-12T11:40:03.183Z,5
2018-03-12T11:45:02.646Z,5
2018-03-12T11:50:03.122Z,4
2018-03-12T11:55:03.575Z,2
2018-03-12T12:00:03.034Z,3
2018-03-12T12:05:03.533Z,3
2018-03-12T12:10:03.082Z,3
2018-03-12T12:15:03.599Z,0
2018-03-12T12:20:03.266Z,3
2018-03-12T12:25:02.714Z,2
2018-03-12T12:30:03.389Z,3
2018-03-12T12:35:02.895Z,2
2018-03-12T12:40:03.458Z,1
2018-03-12T12:45:02.913Z,2
2018-03-12T12:50:03.403Z,1
2018-03-12T12:55:02.909Z,1
2018-03-12T13:00:03.370Z,3
2018-03-12T13:05:02.772Z,3
2018-03-12T13:10:03.565Z,3
2018-03-12T13:15:02.739Z,5
2018-03-12T13:20:03.313Z,7
2018-03-12T13:25:02.822Z,2
2018-03-12T13:30:03.438Z,3
2018-03-12T13:35:03.150Z,2
2018-03-12T13:40:02.735Z,3
2018-03-12T13:45:03.166Z,4
2018-03-12T13:50:02.664Z,6
2018-03-12T13:55:03.276Z,7
2018-03-12T14:00:02.917Z,4
2018-03-12T14:05:03.468Z,6
2018-03-12T14:10:03.059Z,8
2018-03-12T14:15:03.649Z,4
2018-03-12T14:20:03.275Z,4
2018-03-12T14:25:02.858Z,8
2018-03-12T14:30:03.303Z,3
2018-03-12T14:35:02.792Z,6
2018-03-12T14:40:03.380Z,7
2018-03-12T14:45:02.888Z,9
2018-03-12T14:50:03.413Z,8
2018-03-12T14:55:02.886Z,8
2018-03-12T15:35:21.256Z,3
2018-03-12T15:50:09.092Z,6
2018-03-12T15:55:02.646Z,5
2018-03-12T16:00:03.072Z,7
2018-03-12T16:05:03.588Z,5
2018-03-12T16:10:03.149Z,7
2018-03-12T16:15:02.596Z,7
2018-03-12T16:20:03.149Z,5
2018-03-12T16:25:03.615Z,5
2018-03-12T16:30:03.176Z,3
2018-03-12T16:35:02.725Z,7
2018-03-12T16:40:03.277Z,10
2018-03-12T16:45:02.844Z,2
2018-03-12T16:50:03.337Z,4
2018-03-12T16:55:02.830Z,5
2018-03-12T17:00:03.346Z,4
2018-03-12T17:05:02.835Z,4
2018-03-12T17:10:03.616Z,2
2018-03-12T17:15:03.265Z,2
2018-03-12T17:20:02.788Z,4
2018-03-12T17:25:03.256Z,2
2018-03-12T17:30:02.745Z,1
2018-03-12T17:35:03.298Z,0
2018-03-12T17:40:02.800Z,0
2018-03-12T17:45:03.250Z,0
2018-03-12T17:50:02.748Z,0
2018-03-12T17:55:03.288Z,0
2018-03-12T18:00:03.117Z,0
2018-03-12T18:05:02.648Z,0
2018-03-12T18:10:03.259Z,0
2018-03-12T18:15:02.787Z,0
2018-03-12T18:20:03.247Z,0
2018-03-12T18:25:02.771Z,0
2018-03-12T18:30:03.266Z,0
2018-03-12T18:35:02.756Z,0
2018-03-12T18:40:03.312Z,0
2018-03-12T18:45:02.800Z,0
2018-03-12T18:50:03.312Z,0
2018-03-12T18:55:02.792Z,0
2018-03-12T19:00:03.335Z,2
2018-03-12T19:05:02.888Z,4
2018-03-12T19:10:03.484Z,6
2018-03-12T19:15:02.988Z,6
2018-03-12T19:20:03.654Z,6
2018-03-12T19:25:03.200Z,7
2018-03-12T19:30:02.684Z,6
2018-03-12T19:35:03.295Z,6
2018-03-12T19:40:02.909Z,4
2018-03-12T19:45:03.513Z,6
2018-03-12T19:50:03.126Z,5
2018-03-12T19:55:03.253Z,6
2018-03-12T20:00:03.062Z,7
2018-03-12T20:05:04.594Z,3
2018-03-12T20:10:03.606Z,7
2018-03-12T20:15:04.185Z,6
2018-03-12T20:20:02.891Z,6
2018-03-12T20:25:04.113Z,7
2018-03-12T20:30:02.740Z,6
2018-03-12T20:35:03.613Z,7
2018-03-12T20:40:03.285Z,5
2018-03-12T20:45:03.884Z,9
2018-03-12T20:50:03.699Z,6
2018-03-12T20:55:03.357Z,6
2018-03-12T21:00:03.325Z,5
2018-03-12T21:05:02.838Z,6
2018-03-12T21:10:03.459Z,7
2018-03-12T21:15:02.937Z,6
2018-03-12T21:20:03.516Z,8
2018-03-12T21:25:03.028Z,6
2018-03-12T21:30:03.518Z,5
2018-03-12T21:35:03.003Z,6
2018-03-12T21:40:03.516Z,7
2018-03-12T21:45:03.037Z,4
2018-03-12T21:50:03.503Z,3
2018-03-12T21:55:03.015Z,5
2018-03-12T22:00:03.440Z,6
2018-03-12T22:05:02.930Z,3
2018-03-12T22:10:03.553Z,6
2018-03-12T22:15:03.060Z,8
2018-03-12T22:20:03.572Z,5
2018-03-12T22:25:03.029Z,6
2018-03-12T22:30:03.531Z,4
2018-03-12T22:35:02.956Z,5
2018-03-12T22:40:03.552Z,4
2018-03-12T22:45:03.005Z,5
2018-03-12T22:50:03.543Z,7
2018-03-12T22:55:03.009Z,6
2018-03-12T23:00:03.575Z,8
2018-03-12T23:05:03.365Z,7
2018-03-12T23:10:02.963Z,7
2018-03-12T23:15:03.506Z,8
2018-03-12T23:20:03.140Z,6
2018-03-12T23:25:03.584Z,6
2018-03-12T23:30:03.141Z,7
2018-03-12T23:35:02.738Z,7
2018-03-12T23:40:03.244Z,6
2018-03-12T23:45:02.672Z,6
2018-03-12T23:50:03.167Z,7
2018-03-12T23:55:02.591Z,7
